EFTP

Tampere-Pirkkala Airport

Tampere / Pirkkala, Finland
METAR EFTP 200050Z AUTO VRB01KT 0300 R24/1100D FZFG BKN002 M09/M10 Q1009
Observed Flight Rules
Jan-20 @ 00:50 UTC (35 minutes ago) Instrument Flight Rules
Wind Visibility Clouds Conditions
Variable at 1 knots 306 meters
  • Broken at 200' AGL
  • Freezing
  • Fog
Temperatures Readings
Current -9°C / 16°F
Dewpoint -10°C / 14°F
Humidity 93%
Altimeter 29.79" Hg
Pressure 1009 hPa
Elevation 112
METAR EFTP 200050Z AUTO VRB01KT 0300 R24/1100D FZFG BKN002 M09/M10 Q1009
Observed Flight Rules
Jan-20 @ 00:50 UTC
(35 minutes ago)
LIFR
Wind Visibility
Variable at 1 knots 306 meters
Clouds
  • Broken at 200' AGL
Conditions
  • Freezing
  • Fog
Temperature Dewpoint
-9°C / 16°F -10°C / 14°F
Humidity Altimeter Pressure
93% 29.79" Hg 1009 hPa